createdAt,value
2022-08-16T00:01:53.154Z,97882.00
2022-08-16T00:04:22.708Z,97874.00
2022-08-16T00:06:50.924Z,97879.00
2022-08-16T00:09:19.135Z,97885.00
2022-08-16T00:11:52.573Z,97875.00
2022-08-16T00:14:24.034Z,97879.00
2022-08-16T00:17:01.100Z,97885.00
2022-08-16T00:19:45.868Z,97878.00
2022-08-16T00:22:15.539Z,97877.00
2022-08-16T00:24:46.855Z,97882.00
2022-08-16T00:27:15.489Z,97880.00
2022-08-16T00:29:45.870Z,97877.00
2022-08-16T00:32:18.004Z,97872.00
2022-08-16T00:34:53.232Z,97886.00
2022-08-16T00:37:24.449Z,97883.00
2022-08-16T00:39:58.132Z,97881.00
2022-08-16T00:42:30.444Z,97889.00
2022-08-16T00:45:08.079Z,97880.00
2022-08-16T00:47:37.303Z,97859.00
2022-08-16T00:50:11.441Z,97874.00
2022-08-16T00:52:50.340Z,97878.00
2022-08-16T00:55:22.053Z,97870.00
2022-08-16T00:57:58.669Z,97872.00
2022-08-16T01:00:29.725Z,97885.00
2022-08-16T01:02:58.287Z,97884.00
2022-08-16T01:05:28.016Z,97889.00
2022-08-16T01:08:00.026Z,97881.00
2022-08-16T01:10:32.035Z,97884.00
2022-08-16T01:13:02.308Z,97883.00
2022-08-16T01:15:34.158Z,97889.00
2022-08-16T01:18:02.317Z,97890.00
2022-08-16T01:20:33.937Z,97888.00
2022-08-16T01:23:08.524Z,97898.00
2022-08-16T01:25:40.036Z,97903.00
2022-08-16T01:28:09.184Z,97899.00
2022-08-16T01:30:40.039Z,97903.00
2022-08-16T01:33:19.332Z,97903.00
2022-08-16T01:35:52.261Z,97890.00
2022-08-16T01:38:25.722Z,97899.00
2022-08-16T01:41:01.920Z,97897.00
2022-08-16T01:43:31.518Z,97887.00
2022-08-16T01:46:00.251Z,97900.00
2022-08-16T01:48:48.469Z,97901.00
2022-08-16T01:51:17.729Z,97910.00
2022-08-16T01:53:54.674Z,97914.00
2022-08-16T01:56:26.014Z,97888.00
2022-08-16T01:58:55.785Z,97897.00
2022-08-16T02:01:26.109Z,97897.00
2022-08-16T02:03:58.680Z,97900.00
2022-08-16T02:06:45.989Z,97898.00
2022-08-16T02:09:15.061Z,97895.00
2022-08-16T02:11:53.311Z,97903.00
2022-08-16T02:14:26.603Z,97890.00
2022-08-16T02:16:56.233Z,97897.00
2022-08-16T02:19:24.768Z,97909.00
2022-08-16T02:22:35.010Z,97899.00
2022-08-16T02:25:02.970Z,97905.00
2022-08-16T02:32:02.770Z,97906.00
2022-08-16T02:34:12.370Z,97903.00
2022-08-16T02:36:47.928Z,97905.00
2022-08-16T02:39:19.413Z,97912.00
2022-08-16T02:41:53.331Z,97915.00
2022-08-16T02:44:21.758Z,97907.00
2022-08-16T02:46:53.793Z,97911.00
2022-08-16T02:49:22.207Z,97903.00
2022-08-16T02:52:10.617Z,97904.00
2022-08-16T02:54:45.609Z,97903.00
2022-08-16T02:57:23.905Z,97908.00
2022-08-16T02:59:52.051Z,97911.00
2022-08-16T03:02:32.023Z,97907.00
2022-08-16T03:05:00.560Z,97900.00
2022-08-16T03:07:30.117Z,97910.00
2022-08-16T03:10:06.050Z,97900.00
2022-08-16T03:12:36.717Z,97902.00
2022-08-16T03:15:07.173Z,97909.00
2022-08-16T03:17:37.895Z,97907.00
2022-08-16T03:20:22.129Z,97912.00
2022-08-16T03:23:01.969Z,97912.00
2022-08-16T03:25:44.050Z,97916.00
2022-08-16T03:28:13.060Z,97920.00
2022-08-16T03:30:41.361Z,97912.00
2022-08-16T03:33:11.035Z,97915.00
2022-08-16T03:35:40.285Z,97907.00
2022-08-16T03:38:33.110Z,97914.00
2022-08-16T03:40:58.708Z,97907.00
2022-08-16T03:43:51.309Z,97912.00
2022-08-16T03:46:48.191Z,97919.00
2022-08-16T03:49:05.542Z,97918.00
2022-08-16T03:51:35.860Z,97914.00
2022-08-16T03:54:04.449Z,97916.00
2022-08-16T03:56:57.952Z,97915.00
2022-08-16T03:59:29.251Z,97915.00
2022-08-16T04:01:58.451Z,97917.00
2022-08-16T04:04:32.516Z,97914.00
2022-08-16T04:07:03.380Z,97916.00
2022-08-16T04:09:35.672Z,97912.00
2022-08-16T04:12:53.936Z,97913.00
2022-08-16T04:15:02.275Z,97914.00
2022-08-16T04:17:30.735Z,97913.00
2022-08-16T04:20:00.397Z,97915.00
2022-08-16T04:22:29.546Z,97913.00
2022-08-16T04:24:59.354Z,97920.00
2022-08-16T04:27:28.798Z,97924.00
2022-08-16T04:30:02.776Z,97925.00
2022-08-16T04:32:32.420Z,97927.00
2022-08-16T04:35:06.478Z,97939.00
2022-08-16T04:37:42.422Z,97941.00
2022-08-16T04:40:20.528Z,97949.00
2022-08-16T04:42:50.808Z,97942.00
2022-08-16T04:45:36.257Z,97947.00
2022-08-16T04:48:06.350Z,97953.00
2022-08-16T04:50:43.720Z,97951.00
2022-08-16T04:53:12.205Z,97950.00
2022-08-16T04:55:44.659Z,97957.00
2022-08-16T04:58:44.058Z,97952.00
2022-08-16T05:01:01.239Z,97959.00
2022-08-16T05:03:30.963Z,97971.00
2022-08-16T05:06:04.962Z,97969.00
2022-08-16T05:08:35.537Z,97969.00
2022-08-16T05:11:05.870Z,97971.00
2022-08-16T05:13:40.322Z,97968.00
2022-08-16T05:16:16.469Z,97967.00
2022-08-16T05:18:48.579Z,97980.00
2022-08-16T05:21:20.639Z,97978.00
2022-08-16T05:23:55.828Z,97970.00
2022-08-16T05:26:28.748Z,97956.00
2022-08-16T05:28:57.348Z,97965.00
2022-08-16T05:31:29.809Z,97964.00
2022-08-16T05:33:59.680Z,97964.00
2022-08-16T05:36:34.219Z,97959.00
2022-08-16T05:39:06.823Z,97969.00
2022-08-16T05:41:44.823Z,97976.00
2022-08-16T05:46:48.538Z,97978.00
2022-08-16T05:49:23.243Z,97985.00
2022-08-16T05:51:53.047Z,97982.00
2022-08-16T05:54:25.593Z,97980.00
2022-08-16T05:56:54.483Z,97983.00
2022-08-16T05:59:24.109Z,97987.00
2022-08-16T06:01:52.352Z,97984.00
2022-08-16T06:04:36.554Z,97980.00
2022-08-16T06:07:09.036Z,97986.00
2022-08-16T06:09:43.886Z,97993.00
2022-08-16T06:12:26.771Z,97985.00
2022-08-16T06:14:59.635Z,97973.00
2022-08-16T06:17:43.186Z,97976.00
2022-08-16T06:20:14.457Z,97986.00
2022-08-16T06:25:20.212Z,97964.00
2022-08-16T06:28:09.494Z,97931.00
2022-08-16T06:30:43.815Z,97939.00
2022-08-16T06:33:22.039Z,97993.00
2022-08-16T06:35:54.919Z,97949.00
2022-08-16T06:38:33.739Z,97929.00
2022-08-16T06:41:05.613Z,97936.00
2022-08-16T06:43:34.538Z,97919.00
2022-08-16T06:46:04.124Z,97998.00
2022-08-16T06:48:33.717Z,97950.00
2022-08-16T06:51:04.348Z,97973.00
2022-08-16T06:53:36.840Z,97978.00
2022-08-16T06:56:14.312Z,97931.00
2022-08-16T06:58:46.575Z,97961.00
2022-08-16T07:01:15.933Z,97929.00
2022-08-16T07:03:55.101Z,97960.00
2022-08-16T07:06:26.697Z,97986.00
2022-08-16T07:08:55.301Z,97968.00
2022-08-16T07:11:45.650Z,98005.00
2022-08-16T07:14:24.084Z,97961.00
2022-08-16T07:16:57.774Z,97988.00
2022-08-16T07:20:01.290Z,98000.00
2022-08-16T07:22:37.605Z,97950.00
2022-08-16T07:25:03.264Z,97992.00
2022-08-16T07:27:33.733Z,97986.00
2022-08-16T07:30:02.064Z,97982.00
2022-08-16T07:32:32.730Z,97982.00
2022-08-16T07:35:03.214Z,97956.00
2022-08-16T07:37:32.099Z,97957.00
2022-08-16T07:40:00.353Z,97945.00
2022-08-16T07:42:35.354Z,97965.00
2022-08-16T09:47:10.496Z,98002.00
2022-08-16T09:49:41.095Z,98010.00
2022-08-16T09:52:09.852Z,98003.00
2022-08-16T09:54:38.246Z,97999.00
2022-08-16T09:57:07.194Z,98003.00
2022-08-16T09:59:41.863Z,98002.00
2022-08-16T10:02:26.493Z,98003.00
2022-08-16T10:04:56.389Z,98006.00
2022-08-16T10:07:24.941Z,98006.00
2022-08-16T10:09:55.232Z,97998.00
2022-08-16T10:12:43.362Z,97997.00
2022-08-16T10:15:15.177Z,97998.00
2022-08-16T10:18:00.758Z,98000.00
2022-08-16T10:20:30.533Z,98000.00
2022-08-16T10:23:03.606Z,98000.00
2022-08-16T10:27:17.214Z,98002.00
2022-08-16T10:28:32.325Z,98000.00
2022-08-16T10:31:08.164Z,97997.00
2022-08-16T10:33:41.625Z,98004.00
2022-08-16T10:40:29.738Z,98003.00
2022-08-16T10:43:00.568Z,98007.00
2022-08-16T10:45:37.208Z,98000.00
2022-08-16T10:48:24.027Z,97998.00
2022-08-16T10:50:59.395Z,97998.00
2022-08-16T10:53:32.430Z,97998.00
2022-08-16T10:56:02.518Z,98000.00
2022-08-16T10:58:34.487Z,97996.00
2022-08-16T11:03:51.850Z,97999.00
2022-08-16T11:06:27.827Z,98005.00
2022-08-16T11:14:35.153Z,98002.00
2022-08-16T11:17:10.966Z,97998.00
2022-08-16T11:22:47.224Z,97998.00
2022-08-16T11:26:06.110Z,98001.00
2022-08-16T11:28:06.533Z,98012.00
2022-08-16T11:30:38.633Z,98003.00
2022-08-16T11:33:09.039Z,97997.00
2022-08-16T11:38:51.907Z,98002.00
2022-08-16T11:41:20.934Z,98011.00
2022-08-16T11:43:49.253Z,98005.00
2022-08-16T11:46:44.940Z,97996.00
2022-08-16T11:49:13.187Z,98002.00
2022-08-16T11:51:44.087Z,98005.00
2022-08-16T11:54:20.493Z,98002.00
2022-08-16T11:56:53.157Z,98013.00
2022-08-16T11:59:28.664Z,97998.00
2022-08-16T12:01:59.824Z,98001.00
2022-08-16T12:04:32.522Z,97996.00
2022-08-16T12:07:01.397Z,97990.00
2022-08-16T12:09:31.372Z,98000.00
2022-08-16T12:12:03.095Z,98001.00
2022-08-16T12:14:35.349Z,98001.00
2022-08-16T12:17:06.296Z,98001.00
2022-08-16T12:19:36.606Z,98000.00
2022-08-16T12:22:19.075Z,97996.00
2022-08-16T12:24:51.224Z,97995.00
2022-08-16T12:27:23.217Z,98015.00
2022-08-16T12:29:52.575Z,98011.00
2022-08-16T12:32:37.755Z,98005.00
2022-08-16T12:35:12.233Z,98007.00
2022-08-16T12:37:41.838Z,98004.00
2022-08-16T12:40:23.860Z,97999.00
2022-08-16T12:42:54.290Z,98004.00
2022-08-16T12:45:23.313Z,98001.00
2022-08-16T12:48:29.732Z,97999.00
2022-08-16T12:50:57.412Z,97989.00
2022-08-16T12:53:25.729Z,97984.00
2022-08-16T12:56:02.167Z,97986.00
2022-08-16T12:58:49.884Z,98000.00
2022-08-16T13:01:22.325Z,97991.00
2022-08-16T13:04:03.505Z,97994.00
2022-08-16T13:06:40.164Z,97989.00
2022-08-16T13:09:20.267Z,97986.00
2022-08-16T13:12:00.075Z,97986.00
2022-08-16T13:14:31.144Z,97986.00
2022-08-16T13:17:02.237Z,97987.00
2022-08-16T13:20:12.626Z,97986.00
2022-08-16T13:22:43.942Z,97974.00
2022-08-16T13:25:17.396Z,97978.00
2022-08-16T13:28:03.019Z,97979.00
2022-08-16T13:30:37.686Z,97976.00
2022-08-16T13:33:10.872Z,97982.00
2022-08-16T13:35:43.141Z,97978.00
2022-08-16T13:38:21.615Z,97972.00
2022-08-16T13:40:53.727Z,97975.00
2022-08-16T13:43:27.207Z,97983.00
2022-08-16T13:45:56.377Z,97984.00
2022-08-16T13:48:25.973Z,97985.00
2022-08-16T13:50:55.064Z,97988.00
2022-08-16T13:53:25.036Z,97985.00
2022-08-16T13:55:58.460Z,97983.00
2022-08-16T13:58:36.716Z,97988.00
2022-08-16T14:01:09.998Z,97979.00
2022-08-16T14:03:40.175Z,97975.00
2022-08-16T14:06:10.526Z,97978.00
2022-08-16T14:08:42.190Z,97975.00
2022-08-16T14:11:16.891Z,97973.00
2022-08-16T14:13:46.531Z,97981.00
2022-08-16T14:16:23.876Z,97969.00
2022-08-16T14:18:58.205Z,97969.00
2022-08-16T14:21:26.427Z,97972.00
2022-08-16T14:24:16.728Z,97970.00
2022-08-16T14:26:52.774Z,97969.00
2022-08-16T14:29:23.229Z,97972.00
2022-08-16T14:31:53.928Z,97967.00
2022-08-16T14:34:25.699Z,97958.00
2022-08-16T14:36:54.449Z,97961.00
2022-08-16T14:39:23.356Z,97955.00
2022-08-16T14:41:53.622Z,97952.00
2022-08-16T14:44:26.308Z,97950.00
2022-08-16T14:46:59.316Z,97947.00
2022-08-16T14:49:27.589Z,97953.00
2022-08-16T14:51:56.932Z,97952.00
2022-08-16T14:54:30.386Z,97948.00
2022-08-16T14:56:58.903Z,97943.00
2022-08-16T14:59:29.771Z,97952.00
2022-08-16T15:02:00.718Z,97946.00
2022-08-16T15:04:39.881Z,97944.00
2022-08-16T15:07:16.665Z,97945.00
2022-08-16T15:10:00.704Z,97947.00
2022-08-16T15:12:34.195Z,97940.00
2022-08-16T15:15:12.489Z,97942.00
2022-08-16T15:17:41.986Z,97945.00
2022-08-16T15:20:22.130Z,97946.00
2022-08-16T15:22:51.099Z,97939.00
2022-08-16T15:25:22.108Z,97943.00
2022-08-16T15:27:56.102Z,97937.00
2022-08-16T15:30:57.272Z,97942.00
2022-08-16T15:33:16.211Z,97946.00
2022-08-16T15:35:44.877Z,97950.00
2022-08-16T15:38:57.693Z,97951.00
2022-08-16T15:41:03.203Z,97948.00
2022-08-16T15:43:39.013Z,97953.00
2022-08-16T15:46:35.208Z,97947.00
2022-08-16T15:49:13.748Z,97950.00
2022-08-16T15:51:43.523Z,97953.00
2022-08-16T15:54:21.036Z,97946.00
2022-08-16T15:57:09.678Z,97949.00
2022-08-16T15:59:48.731Z,97956.00
2022-08-16T16:02:29.844Z,97951.00
2022-08-16T16:05:01.922Z,97958.00
2022-08-16T16:07:33.350Z,97958.00
2022-08-16T16:10:02.889Z,97962.00
2022-08-16T16:12:50.906Z,97962.00
2022-08-16T16:15:20.306Z,97954.00
2022-08-16T16:17:53.083Z,97952.00
2022-08-16T16:20:22.054Z,97954.00
2022-08-16T16:22:52.920Z,97962.00
2022-08-16T16:25:21.292Z,97955.00
2022-08-16T16:27:55.673Z,97950.00
2022-08-16T16:30:33.051Z,97950.00
2022-08-16T16:33:20.806Z,97947.00
2022-08-16T16:35:55.305Z,97946.00
2022-08-16T16:38:26.897Z,97949.00
2022-08-16T16:40:55.218Z,97948.00
2022-08-16T16:43:25.403Z,97953.00
2022-08-16T16:45:54.399Z,97946.00
2022-08-16T16:48:29.519Z,97943.00
2022-08-16T16:51:06.084Z,97953.00
2022-08-16T16:53:37.942Z,97943.00
2022-08-16T16:56:08.869Z,97937.00
2022-08-16T16:59:07.472Z,97937.00
2022-08-16T17:01:57.001Z,97937.00
2022-08-16T17:04:31.844Z,97934.00
2022-08-16T17:07:11.047Z,97940.00
2022-08-16T17:09:41.002Z,97940.00
2022-08-16T17:12:10.255Z,97933.00
2022-08-16T17:14:43.430Z,97925.00
2022-08-16T17:17:13.284Z,97932.00
2022-08-16T17:19:44.693Z,97934.00
2022-08-16T17:22:15.605Z,97939.00
2022-08-16T17:24:50.506Z,97929.00
2022-08-16T17:27:32.485Z,97937.00
2022-08-16T17:30:01.745Z,97928.00
2022-08-16T17:32:44.464Z,97948.00
2022-08-16T17:35:18.813Z,97935.00
2022-08-16T17:37:51.379Z,97940.00
2022-08-16T17:40:25.681Z,97943.00
2022-08-16T17:43:10.307Z,97937.00
2022-08-16T17:45:39.352Z,97937.00
2022-08-16T17:48:07.634Z,97949.00
2022-08-16T17:50:37.250Z,97948.00
2022-08-16T17:53:06.468Z,97952.00
2022-08-16T17:55:36.734Z,97954.00
2022-08-16T17:58:09.704Z,97956.00
2022-08-16T18:00:52.301Z,97954.00
2022-08-16T18:04:03.048Z,97956.00
2022-08-16T18:06:16.384Z,97957.00
2022-08-16T18:08:45.780Z,97952.00
2022-08-16T18:11:19.008Z,97957.00
2022-08-16T18:13:54.192Z,97960.00
2022-08-16T18:16:22.435Z,97954.00
2022-08-16T18:18:50.622Z,97957.00
2022-08-16T18:21:41.016Z,97960.00
2022-08-16T18:24:09.364Z,97962.00
2022-08-16T18:26:38.102Z,97966.00
2022-08-16T18:29:06.350Z,97966.00
2022-08-16T18:31:34.595Z,97960.00
2022-08-16T18:34:03.024Z,97966.00
2022-08-16T18:36:33.472Z,97961.00
2022-08-16T18:39:02.045Z,97968.00
2022-08-16T18:41:37.225Z,97962.00
2022-08-16T18:44:26.310Z,97959.00
2022-08-16T18:46:56.264Z,97966.00
2022-08-16T18:49:24.640Z,97964.00
2022-08-16T18:51:57.395Z,97968.00
2022-08-16T18:54:26.342Z,97973.00
2022-08-16T18:56:56.247Z,97969.00
2022-08-16T18:59:26.502Z,97973.00
2022-08-16T19:01:59.850Z,97980.00
2022-08-16T19:04:50.441Z,97981.00
2022-08-16T19:07:22.221Z,97972.00
2022-08-16T19:09:50.830Z,97971.00
2022-08-16T19:12:37.693Z,97973.00
2022-08-16T19:15:11.985Z,97987.00
2022-08-16T19:17:41.724Z,97983.00
2022-08-16T19:20:15.006Z,97986.00
2022-08-16T19:25:46.923Z,97999.00
2022-08-16T19:28:49.541Z,98005.00
2022-08-16T19:31:10.875Z,98013.00
2022-08-16T19:33:39.544Z,98008.00
2022-08-16T19:36:08.323Z,98006.00
2022-08-16T19:38:46.838Z,97994.00
2022-08-16T19:41:15.994Z,97995.00
2022-08-16T19:43:45.154Z,97997.00
2022-08-16T19:46:13.467Z,98009.00
2022-08-16T19:48:41.739Z,98004.00
2022-08-16T19:51:10.044Z,98009.00
2022-08-16T19:53:38.276Z,98014.00
2022-08-16T19:56:08.164Z,98013.00
2022-08-16T19:58:36.912Z,98021.00
2022-08-16T20:01:05.337Z,98010.00
2022-08-16T20:03:34.306Z,98016.00
2022-08-16T20:06:03.499Z,98015.00
2022-08-16T20:08:33.386Z,98016.00
2022-08-16T20:11:01.589Z,98024.00
2022-08-16T20:13:31.783Z,98025.00
2022-08-16T20:16:00.118Z,98033.00
2022-08-16T20:18:28.390Z,98034.00
2022-08-16T20:20:56.597Z,98039.00
2022-08-16T20:23:27.805Z,98030.00
2022-08-16T20:25:56.665Z,98035.00
2022-08-16T20:28:51.947Z,98038.00
2022-08-16T20:31:14.554Z,98047.00
2022-08-16T20:33:42.728Z,98038.00
2022-08-16T20:36:16.103Z,98055.00
2022-08-16T20:38:47.507Z,98051.00
2022-08-16T20:41:16.221Z,98054.00
2022-08-16T20:43:45.585Z,98064.00
2022-08-16T20:46:15.952Z,98060.00
2022-08-16T20:48:44.223Z,98070.00
2022-08-16T20:51:12.414Z,98065.00
2022-08-16T20:53:40.653Z,98068.00
2022-08-16T20:56:08.891Z,98064.00
2022-08-16T20:58:38.610Z,98054.00
2022-08-16T21:01:07.019Z,98055.00
2022-08-16T21:03:37.603Z,98066.00
2022-08-16T21:06:05.914Z,98054.00
2022-08-16T21:08:52.322Z,98067.00
2022-08-16T21:11:22.058Z,98064.00
2022-08-16T21:13:50.414Z,98077.00
2022-08-16T21:16:47.012Z,98072.00
2022-08-16T21:19:16.630Z,98067.00
2022-08-16T21:21:44.898Z,98071.00
2022-08-16T21:24:13.292Z,98066.00
2022-08-16T21:26:41.525Z,98068.00
2022-08-16T21:29:22.163Z,98072.00
2022-08-16T21:31:53.327Z,98076.00
2022-08-16T21:34:22.944Z,98068.00
2022-08-16T21:36:51.235Z,98068.00
2022-08-16T21:39:19.425Z,98059.00
2022-08-16T21:41:47.662Z,98067.00
2022-08-16T21:44:15.984Z,98068.00
2022-08-16T21:46:44.173Z,98071.00
2022-08-16T21:49:12.359Z,98072.00
2022-08-16T21:51:41.990Z,98083.00
2022-08-16T21:56:38.367Z,98083.00
2022-08-16T21:59:11.090Z,98076.00
2022-08-16T22:01:41.692Z,98077.00
2022-08-16T22:04:37.921Z,98075.00
2022-08-16T22:07:00.515Z,98074.00
2022-08-16T22:09:28.701Z,98075.00
2022-08-16T22:11:57.029Z,98081.00
2022-08-16T22:14:25.570Z,98079.00
2022-08-16T22:16:54.270Z,98076.00
2022-08-16T22:19:24.750Z,98077.00
2022-08-16T22:21:55.750Z,98069.00
2022-08-16T22:24:25.894Z,98079.00
2022-08-16T22:26:54.343Z,98080.00
2022-08-16T22:29:22.816Z,98078.00
2022-08-16T22:31:51.045Z,98067.00
2022-08-16T22:34:19.590Z,98078.00
2022-08-16T22:36:48.325Z,98075.00
2022-08-16T22:39:17.354Z,98068.00
2022-08-16T22:41:49.871Z,98076.00
2022-08-16T22:44:18.061Z,98069.00
2022-08-16T22:46:47.132Z,98076.00
2022-08-16T22:49:15.594Z,98068.00
2022-08-16T22:51:47.076Z,98075.00
2022-08-16T22:54:47.710Z,98066.00
2022-08-16T22:57:05.441Z,98066.00
2022-08-16T22:59:34.074Z,98077.00
2022-08-16T23:02:03.415Z,98069.00
2022-08-16T23:04:31.884Z,98064.00
2022-08-16T23:07:00.243Z,98075.00
2022-08-16T23:09:29.448Z,98080.00
2022-08-16T23:11:57.659Z,98077.00
2022-08-16T23:14:27.314Z,98075.00
2022-08-16T23:16:55.516Z,98081.00
2022-08-16T23:19:23.693Z,98079.00
2022-08-16T23:21:51.904Z,98085.00
2022-08-16T23:24:20.580Z,98085.00
2022-08-16T23:26:49.715Z,98082.00
2022-08-16T23:29:23.796Z,98083.00
2022-08-16T23:31:56.943Z,98077.00
2022-08-16T23:34:25.238Z,98089.00
2022-08-16T23:36:53.426Z,98088.00
2022-08-16T23:39:21.605Z,98080.00
2022-08-16T23:41:49.817Z,98078.00
2022-08-16T23:44:42.260Z,98080.00
2022-08-16T23:47:08.159Z,98072.00
2022-08-16T23:49:59.064Z,98078.00
2022-08-16T23:52:42.152Z,98070.00
2022-08-16T23:55:12.911Z,98068.00
2022-08-16T23:57:41.127Z,98069.00
